sensor_id;sensor_type;location;lat;lon;timestamp;pressure;altitude;pressure_sealevel;temperature;humidity
43125;BME280;49182;50.788;7.318;2022-10-31T00:01:38;101387.91;;;9.43;99.27
43125;BME280;49182;50.788;7.318;2022-10-31T00:04:05;101391.25;;;9.45;99.28
43125;BME280;49182;50.788;7.318;2022-10-31T00:06:32;101380.69;;;9.45;99.48
43125;BME280;49182;50.788;7.318;2022-10-31T00:09:00;101381.03;;;9.40;99.59
43125;BME280;49182;50.788;7.318;2022-10-31T00:11:28;101336.41;;;9.13;100.00
43125;BME280;49182;50.788;7.318;2022-10-31T00:13:56;101369.13;;;9.34;100.00
43125;BME280;49182;50.788;7.318;2022-10-31T00:16:24;101383.25;;;9.33;100.00
43125;BME280;49182;50.788;7.318;2022-10-31T00:18:52;101384.44;;;9.29;100.00
43125;BME280;49182;50.788;7.318;2022-10-31T00:21:20;101388.00;;;9.28;100.00
43125;BME280;49182;50.788;7.318;2022-10-31T00:23:47;101379.59;;;9.23;100.00
43125;BME280;49182;50.788;7.318;2022-10-31T00:26:14;101390.97;;;9.24;100.00
43125;BME280;49182;50.788;7.318;2022-10-31T00:28:40;101397.94;;;9.25;100.00
43125;BME280;49182;50.788;7.318;2022-10-31T00:31:10;101401.09;;;9.30;100.00
43125;BME280;49182;50.788;7.318;2022-10-31T00:33:38;101390.88;;;9.25;100.00
43125;BME280;49182;50.788;7.318;2022-10-31T00:36:06;101401.09;;;9.30;100.00
43125;BME280;49182;50.788;7.318;2022-10-31T00:38:33;101406.34;;;9.30;100.00
43125;BME280;49182;50.788;7.318;2022-10-31T00:41:00;101401.94;;;9.30;100.00
43125;BME280;49182;50.788;7.318;2022-10-31T00:43:26;101388.00;;;9.16;100.00
43125;BME280;49182;50.788;7.318;2022-10-31T00:45:53;101402.22;;;9.26;100.00
43125;BME280;49182;50.788;7.318;2022-10-31T00:48:24;101396.25;;;9.24;100.00
43125;BME280;49182;50.788;7.318;2022-10-31T00:50:52;101325.03;;;8.87;100.00
43125;BME280;49182;50.788;7.318;2022-10-31T00:53:18;101396.25;;;9.24;100.00
43125;BME280;49182;50.788;7.318;2022-10-31T00:55:46;101379.38;;;9.14;100.00
43125;BME280;49182;50.788;7.318;2022-10-31T00:58:13;101385.72;;;9.11;100.00
43125;BME280;49182;50.788;7.318;2022-10-31T01:00:40;101401.84;;;9.19;100.00
43125;BME280;49182;50.788;7.318;2022-10-31T01:03:08;101404.56;;;9.18;100.00
43125;BME280;49182;50.788;7.318;2022-10-31T01:05:39;101401.09;;;9.17;100.00
43125;BME280;49182;50.788;7.318;2022-10-31T01:08:07;101377.56;;;9.02;100.00
43125;BME280;49182;50.788;7.318;2022-10-31T01:10:34;101405.50;;;9.17;100.00
43125;BME280;49182;50.788;7.318;2022-10-31T01:13:00;101398.34;;;9.06;100.00
43125;BME280;49182;50.788;7.318;2022-10-31T01:15:27;101405.00;;;9.12;100.00
43125;BME280;49182;50.788;7.318;2022-10-31T01:17:54;101401.50;;;9.11;100.00
43125;BME280;49182;50.788;7.318;2022-10-31T01:20:21;101395.31;;;9.12;100.00
43125;BME280;49182;50.788;7.318;2022-10-31T01:22:49;101391.91;;;9.10;100.00
43125;BME280;49182;50.788;7.318;2022-10-31T01:25:16;101394.66;;;9.09;100.00
43125;BME280;49182;50.788;7.318;2022-10-31T01:27:42;101388.66;;;9.07;100.00
43125;BME280;49182;50.788;7.318;2022-10-31T01:30:10;101383.41;;;9.07;100.00
43125;BME280;49182;50.788;7.318;2022-10-31T01:32:37;101384.44;;;9.04;100.00
43125;BME280;49182;50.788;7.318;2022-10-31T01:35:04;101379.38;;;9.01;100.00
43125;BME280;49182;50.788;7.318;2022-10-31T01:37:31;101375.06;;;9.00;100.00
43125;BME280;49182;50.788;7.318;2022-10-31T01:39:59;101372.44;;;9.00;100.00
43125;BME280;49182;50.788;7.318;2022-10-31T01:42:26;101372.44;;;9.00;100.00
43125;BME280;49182;50.788;7.318;2022-10-31T01:44:58;101369.66;;;9.02;100.00
43125;BME280;49182;50.788;7.318;2022-10-31T01:47:41;101372.63;;;8.97;100.00
43125;BME280;49182;50.788;7.318;2022-10-31T01:50:19;101365.91;;;8.93;100.00
43125;BME280;49182;50.788;7.318;2022-10-31T01:52:50;101370.09;;;8.96;100.00
43125;BME280;49182;50.788;7.318;2022-10-31T01:55:22;101366.41;;;8.98;100.00
43125;BME280;49182;50.788;7.318;2022-10-31T01:57:57;101365.47;;;8.99;100.00
43125;BME280;49182;50.788;7.318;2022-10-31T02:00:26;101357.47;;;9.01;100.00
43125;BME280;49182;50.788;7.318;2022-10-31T02:02:52;101374.09;;;9.01;100.00
43125;BME280;49182;50.788;7.318;2022-10-31T02:05:22;101322.91;;;8.80;100.00
43125;BME280;49182;50.788;7.318;2022-10-31T02:07:55;101339.56;;;8.93;100.00
43125;BME280;49182;50.788;7.318;2022-10-31T02:10:30;101354.00;;;9.13;100.00
43125;BME280;49182;50.788;7.318;2022-10-31T02:13:00;101351.66;;;9.08;100.00
43125;BME280;49182;50.788;7.318;2022-10-31T02:15:29;101350.09;;;9.06;100.00
43125;BME280;49182;50.788;7.318;2022-10-31T02:17:56;101358.00;;;9.06;100.00
43125;BME280;49182;50.788;7.318;2022-10-31T02:20:29;101357.16;;;9.05;100.00
43125;BME280;49182;50.788;7.318;2022-10-31T02:23:23;101361.66;;;9.03;100.00
43125;BME280;49182;50.788;7.318;2022-10-31T02:29:19;101361.06;;;9.12;100.00
43125;BME280;49182;50.788;7.318;2022-10-31T02:31:56;101352.41;;;9.10;100.00
43125;BME280;49182;50.788;7.318;2022-10-31T02:34:32;101333.44;;;8.92;100.00
43125;BME280;49182;50.788;7.318;2022-10-31T02:37:06;101359.78;;;9.05;100.00
43125;BME280;49182;50.788;7.318;2022-10-31T02:39:45;101366.00;;;9.04;100.00
43125;BME280;49182;50.788;7.318;2022-10-31T02:42:26;101230.75;;;8.29;100.00
43125;BME280;49182;50.788;7.318;2022-10-31T02:45:00;101322.81;;;8.81;100.00
43125;BME280;49182;50.788;7.318;2022-10-31T02:47:33;101355.56;;;9.03;100.00
43125;BME280;49182;50.788;7.318;2022-10-31T02:50:07;101354.63;;;9.04;100.00
43125;BME280;49182;50.788;7.318;2022-10-31T02:52:38;101357.34;;;9.02;100.00
43125;BME280;49182;50.788;7.318;2022-10-31T02:55:39;101359.97;;;9.02;100.00
43125;BME280;49182;50.788;7.318;2022-10-31T02:58:06;101361.78;;;9.02;100.00
43125;BME280;49182;50.788;7.318;2022-10-31T03:00:38;101365.66;;;8.96;100.00
43125;BME280;49182;50.788;7.318;2022-10-31T03:03:15;101369.56;;;8.90;100.00
43125;BME280;49182;50.788;7.318;2022-10-31T03:05:51;101367.78;;;8.91;100.00
43125;BME280;49182;50.788;7.318;2022-10-31T03:08:25;101375.78;;;8.89;100.00
43125;BME280;49182;50.788;7.318;2022-10-31T03:10:58;101376.84;;;8.87;100.00
43125;BME280;49182;50.788;7.318;2022-10-31T03:13:34;101361.78;;;8.76;100.00
43125;BME280;49182;50.788;7.318;2022-10-31T03:16:07;101375.06;;;8.87;100.00
43125;BME280;49182;50.788;7.318;2022-10-31T03:18:37;101350.72;;;8.71;100.00
43125;BME280;49182;50.788;7.318;2022-10-31T03:21:09;101378.75;;;8.85;100.00
43125;BME280;49182;50.788;7.318;2022-10-31T03:23:40;101370.22;;;8.81;100.00
43125;BME280;49182;50.788;7.318;2022-10-31T03:26:09;101383.06;;;8.86;100.00
43125;BME280;49182;50.788;7.318;2022-10-31T03:28:43;101387.38;;;8.87;100.00
43125;BME280;49182;50.788;7.318;2022-10-31T03:31:13;101387.56;;;8.84;100.00
43125;BME280;49182;50.788;7.318;2022-10-31T03:33:43;101384.22;;;8.82;100.00
43125;BME280;49182;50.788;7.318;2022-10-31T03:36:14;101369.13;;;8.71;100.00
43125;BME280;49182;50.788;7.318;2022-10-31T03:38:43;101359.78;;;8.67;100.00
43125;BME280;49182;50.788;7.318;2022-10-31T03:41:16;101380.84;;;8.80;100.00
43125;BME280;49182;50.788;7.318;2022-10-31T03:43:52;101374.53;;;8.82;100.00
43125;BME280;49182;50.788;7.318;2022-10-31T03:46:22;101378.63;;;8.74;100.00
43125;BME280;49182;50.788;7.318;2022-10-31T03:48:50;101379.03;;;8.68;100.00
43125;BME280;49182;50.788;7.318;2022-10-31T03:51:22;101381.16;;;8.63;100.00
43125;BME280;49182;50.788;7.318;2022-10-31T03:53:53;101380.41;;;8.61;100.00
43125;BME280;49182;50.788;7.318;2022-10-31T03:56:27;101362.47;;;8.53;100.00
43125;BME280;49182;50.788;7.318;2022-10-31T03:59:01;101373.53;;;8.58;100.00
43125;BME280;49182;50.788;7.318;2022-10-31T04:01:33;101377.13;;;8.57;100.00
43125;BME280;49182;50.788;7.318;2022-10-31T04:04:02;101355.31;;;8.42;100.00
43125;BME280;49182;50.788;7.318;2022-10-31T04:06:29;101379.22;;;8.52;100.00
43125;BME280;49182;50.788;7.318;2022-10-31T04:09:03;101374.78;;;8.52;100.00
43125;BME280;49182;50.788;7.318;2022-10-31T04:11:31;101376.03;;;8.47;100.00
43125;BME280;49182;50.788;7.318;2022-10-31T04:14:31;101379.63;;;8.46;100.00
43125;BME280;49182;50.788;7.318;2022-10-31T04:17:01;101380.59;;;8.45;100.00
43125;BME280;49182;50.788;7.318;2022-10-31T04:19:35;101370.16;;;8.43;100.00
43125;BME280;49182;50.788;7.318;2022-10-31T04:22:02;101360.56;;;8.42;100.00
43125;BME280;49182;50.788;7.318;2022-10-31T04:24:29;101356.34;;;8.40;100.00
43125;BME280;49182;50.788;7.318;2022-10-31T04:26:56;101348.56;;;8.38;100.00
43125;BME280;49182;50.788;7.318;2022-10-31T04:29:23;101352.16;;;8.37;100.00
43125;BME280;49182;50.788;7.318;2022-10-31T04:31:51;101353.09;;;8.36;100.00
43125;BME280;49182;50.788;7.318;2022-10-31T04:34:18;101333.75;;;8.23;100.00
43125;BME280;49182;50.788;7.318;2022-10-31T04:36:44;101354.34;;;8.31;100.00
43125;BME280;49182;50.788;7.318;2022-10-31T04:39:14;101334.38;;;8.14;100.00
43125;BME280;49182;50.788;7.318;2022-10-31T04:41:47;101337.34;;;8.22;100.00
43125;BME280;49182;50.788;7.318;2022-10-31T04:44:14;101358.19;;;8.25;100.00
43125;BME280;49182;50.788;7.318;2022-10-31T04:46:41;101366.16;;;8.24;100.00
43125;BME280;49182;50.788;7.318;2022-10-31T04:49:10;101328.50;;;7.96;100.00
43125;BME280;49182;50.788;7.318;2022-10-31T04:51:36;101232.97;;;7.44;100.00
43125;BME280;49182;50.788;7.318;2022-10-31T04:54:04;101370.28;;;8.28;100.00
43125;BME280;49182;50.788;7.318;2022-10-31T04:57:09;101349.84;;;8.19;100.00
43125;BME280;49182;50.788;7.318;2022-10-31T04:59:36;101362.06;;;8.20;100.00
43125;BME280;49182;50.788;7.318;2022-10-31T05:02:03;101349.00;;;8.18;100.00
43125;BME280;49182;50.788;7.318;2022-10-31T05:04:46;101335.41;;;8.11;100.00
43125;BME280;49182;50.788;7.318;2022-10-31T05:07:13;101338.88;;;8.12;100.00
43125;BME280;49182;50.788;7.318;2022-10-31T05:09:39;101337.28;;;8.09;100.00
43125;BME280;49182;50.788;7.318;2022-10-31T05:12:06;101335.72;;;8.07;100.00
43125;BME280;49182;50.788;7.318;2022-10-31T05:14:51;101331.50;;;8.04;100.00
43125;BME280;49182;50.788;7.318;2022-10-31T05:17:36;101330.34;;;8.08;100.00
43125;BME280;49182;50.788;7.318;2022-10-31T05:20:31;101332.03;;;8.09;100.00
43125;BME280;49182;50.788;7.318;2022-10-31T05:23:24;101311.09;;;7.95;100.00
43125;BME280;49182;50.788;7.318;2022-10-31T05:25:52;101333.28;;;8.04;100.00
43125;BME280;49182;50.788;7.318;2022-10-31T05:28:19;101334.34;;;8.01;100.00
43125;BME280;49182;50.788;7.318;2022-10-31T05:30:46;101318.56;;;8.01;100.00
43125;BME280;49182;50.788;7.318;2022-10-31T05:33:15;101261.03;;;7.70;100.00
43125;BME280;49182;50.788;7.318;2022-10-31T05:36:02;101334.97;;;8.05;100.00
43125;BME280;49182;50.788;7.318;2022-10-31T05:38:47;101337.06;;;8.00;100.00
43125;BME280;49182;50.788;7.318;2022-10-31T05:41:32;101331.91;;;7.98;100.00
43125;BME280;49182;50.788;7.318;2022-10-31T05:44:12;101321.28;;;8.00;100.00
43125;BME280;49182;50.788;7.318;2022-10-31T05:47:08;101315.94;;;8.01;100.00
43125;BME280;49182;50.788;7.318;2022-10-31T05:49:57;101326.63;;;7.98;100.00
43125;BME280;49182;50.788;7.318;2022-10-31T05:52:31;101292.63;;;7.83;100.00
43125;BME280;49182;50.788;7.318;2022-10-31T05:55:10;101191.69;;;7.19;100.00
43125;BME280;49182;50.788;7.318;2022-10-31T05:57:44;101306.94;;;7.91;100.00
43125;BME280;49182;50.788;7.318;2022-10-31T06:00:12;101280.16;;;7.72;100.00
43125;BME280;49182;50.788;7.318;2022-10-31T06:02:46;101313.91;;;7.92;100.00
43125;BME280;49182;50.788;7.318;2022-10-31T06:05:27;101256.47;;;7.59;100.00
43125;BME280;49182;50.788;7.318;2022-10-31T06:07:55;101301.16;;;7.86;100.00
43125;BME280;49182;50.788;7.318;2022-10-31T06:10:23;101237.19;;;7.46;100.00
43125;BME280;49182;50.788;7.318;2022-10-31T06:12:53;101300.53;;;7.83;100.00
43125;BME280;49182;50.788;7.318;2022-10-31T06:15:32;101318.31;;;7.92;100.00
43125;BME280;49182;50.788;7.318;2022-10-31T06:18:00;101320.63;;;7.96;100.00
43125;BME280;49182;50.788;7.318;2022-10-31T06:20:32;101301.91;;;7.88;100.00
43125;BME280;49182;50.788;7.318;2022-10-31T06:23:03;101318.84;;;7.97;100.00
43125;BME280;49182;50.788;7.318;2022-10-31T06:25:32;101311.94;;;7.96;100.00
43125;BME280;49182;50.788;7.318;2022-10-31T06:27:59;101306.75;;;7.94;100.00
43125;BME280;49182;50.788;7.318;2022-10-31T06:30:43;101298.53;;;7.86;100.00
43125;BME280;49182;50.788;7.318;2022-10-31T06:33:10;101304.84;;;7.84;100.00
43125;BME280;49182;50.788;7.318;2022-10-31T06:35:45;101314.75;;;7.93;100.00
43125;BME280;49182;50.788;7.318;2022-10-31T06:38:13;101311.81;;;7.97;100.00
43125;BME280;49182;50.788;7.318;2022-10-31T06:40:41;101316.03;;;8.00;100.00
43125;BME280;49182;50.788;7.318;2022-10-31T06:43:20;101316.97;;;7.99;100.00
43125;BME280;49182;50.788;7.318;2022-10-31T06:45:48;101310.88;;;7.98;100.00
43125;BME280;49182;50.788;7.318;2022-10-31T06:48:22;101315.63;;;8.06;100.00
43125;BME280;49182;50.788;7.318;2022-10-31T06:51:13;101321.31;;;8.12;100.00
43125;BME280;49182;50.788;7.318;2022-10-31T06:53:42;101315.75;;;8.17;100.00
43125;BME280;49182;50.788;7.318;2022-10-31T06:56:11;101307.88;;;8.17;100.00
43125;BME280;49182;50.788;7.318;2022-10-31T06:58:44;101314.59;;;8.21;100.00
43125;BME280;49182;50.788;7.318;2022-10-31T07:01:12;101278.06;;;8.04;100.00
43125;BME280;49182;50.788;7.318;2022-10-31T07:03:39;101319.91;;;8.34;100.00
43125;BME280;49182;50.788;7.318;2022-10-31T07:06:07;101313.53;;;8.38;100.00
43125;BME280;49182;50.788;7.318;2022-10-31T07:08:33;101308.56;;;8.46;100.00
43125;BME280;49182;50.788;7.318;2022-10-31T07:11:01;101317.88;;;8.51;100.00
43125;BME280;49182;50.788;7.318;2022-10-31T07:13:29;101307.72;;;8.58;100.00
43125;BME280;49182;50.788;7.318;2022-10-31T07:16:06;101319.53;;;8.65;100.00
43125;BME280;49182;50.788;7.318;2022-10-31T07:18:35;101330.41;;;8.73;100.00
43125;BME280;49182;50.788;7.318;2022-10-31T07:21:02;101314.69;;;8.84;100.00
43125;BME280;49182;50.788;7.318;2022-10-31T07:23:28;101311.13;;;8.98;100.00
43125;BME280;49182;50.788;7.318;2022-10-31T07:26:16;101312.69;;;9.01;100.00
43125;BME280;49182;50.788;7.318;2022-10-31T07:28:46;101300.91;;;8.93;100.00
43125;BME280;49182;50.788;7.318;2022-10-31T07:31:13;101314.78;;;9.08;100.00
43125;BME280;49182;50.788;7.318;2022-10-31T07:33:40;101319.63;;;9.14;100.00
43125;BME280;49182;50.788;7.318;2022-10-31T07:36:36;101315.59;;;9.21;100.00
43125;BME280;49182;50.788;7.318;2022-10-31T07:39:03;101319.72;;;9.25;100.00
43125;BME280;49182;50.788;7.318;2022-10-31T07:41:35;101316.53;;;9.33;100.00
43125;BME280;49182;50.788;7.318;2022-10-31T07:44:02;101297.81;;;9.25;100.00
43125;BME280;49182;50.788;7.318;2022-10-31T07:46:49;101331.03;;;9.51;100.00
43125;BME280;49182;50.788;7.318;2022-10-31T07:49:35;101317.09;;;9.62;100.00
43125;BME280;49182;50.788;7.318;2022-10-31T07:52:20;101319.28;;;9.68;100.00
43125;BME280;49182;50.788;7.318;2022-10-31T07:55:06;101324.13;;;9.74;100.00
43125;BME280;49182;50.788;7.318;2022-10-31T07:57:36;101321.03;;;9.80;100.00
43125;BME280;49182;50.788;7.318;2022-10-31T08:00:04;101329.19;;;9.88;100.00
43125;BME280;49182;50.788;7.318;2022-10-31T08:02:40;101308.56;;;9.82;100.00
43125;BME280;49182;50.788;7.318;2022-10-31T08:05:34;101326.28;;;10.04;100.00
43125;BME280;49182;50.788;7.318;2022-10-31T08:08:19;101326.69;;;10.10;100.00
43125;BME280;49182;50.788;7.318;2022-10-31T08:10:47;101317.41;;;10.18;100.00
43125;BME280;49182;50.788;7.318;2022-10-31T08:13:15;101319.34;;;10.27;100.00
43125;BME280;49182;50.788;7.318;2022-10-31T08:15:45;101328.47;;;10.34;100.00
43125;BME280;49182;50.788;7.318;2022-10-31T08:18:14;101318.19;;;10.42;100.00
43125;BME280;49182;50.788;7.318;2022-10-31T08:20:42;101323.00;;;10.48;100.00
43125;BME280;49182;50.788;7.318;2022-10-31T08:23:10;101329.38;;;10.57;100.00
43125;BME280;49182;50.788;7.318;2022-10-31T08:25:37;101324.47;;;10.63;100.00
43125;BME280;49182;50.788;7.318;2022-10-31T08:28:06;101317.16;;;10.67;100.00
43125;BME280;49182;50.788;7.318;2022-10-31T08:30:36;101318.88;;;10.79;100.00
43125;BME280;49182;50.788;7.318;2022-10-31T08:33:25;101314.66;;;10.87;99.61
43125;BME280;49182;50.788;7.318;2022-10-31T08:36:11;101289.91;;;10.77;99.82
43125;BME280;49182;50.788;7.318;2022-10-31T08:39:14;101311.78;;;11.02;99.71
43125;BME280;49182;50.788;7.318;2022-10-31T08:41:41;101255.94;;;10.73;98.89
43125;BME280;49182;50.788;7.318;2022-10-31T08:44:11;101303.63;;;11.16;98.11
43125;BME280;49182;50.788;7.318;2022-10-31T08:46:39;101303.13;;;11.22;98.58
43125;BME280;49182;50.788;7.318;2022-10-31T08:49:06;101188.72;;;10.66;98.49
43125;BME280;49182;50.788;7.318;2022-10-31T08:51:32;101291.47;;;11.35;98.40
43125;BME280;49182;50.788;7.318;2022-10-31T08:54:01;101290.13;;;11.41;98.19
43125;BME280;49182;50.788;7.318;2022-10-31T08:56:46;101295.44;;;11.41;97.98
43125;BME280;49182;50.788;7.318;2022-10-31T08:59:27;101282.06;;;11.43;97.77
43125;BME280;49182;50.788;7.318;2022-10-31T09:02:16;101295.75;;;11.59;97.18
43125;BME280;49182;50.788;7.318;2022-10-31T09:04:43;101291.50;;;11.67;97.47
43125;BME280;49182;50.788;7.318;2022-10-31T09:07:09;101297.28;;;11.72;97.81
43125;BME280;49182;50.788;7.318;2022-10-31T09:09:53;101291.13;;;11.83;97.98
43125;BME280;49182;50.788;7.318;2022-10-31T09:12:19;101286.66;;;11.95;96.17
43125;BME280;49182;50.788;7.318;2022-10-31T09:15:07;101287.69;;;12.03;96.12
43125;BME280;49182;50.788;7.318;2022-10-31T09:17:48;101292.22;;;12.12;95.97
43125;BME280;49182;50.788;7.318;2022-10-31T09:20:26;101286.00;;;12.23;95.72
43125;BME280;49182;50.788;7.318;2022-10-31T09:22:56;101287.78;;;12.34;95.00
43125;BME280;49182;50.788;7.318;2022-10-31T09:25:23;101284.34;;;12.43;95.72
43125;BME280;49182;50.788;7.318;2022-10-31T09:28:05;101267.53;;;12.53;95.69
43125;BME280;49182;50.788;7.318;2022-10-31T09:30:34;101279.34;;;12.70;95.57
43125;BME280;49182;50.788;7.318;2022-10-31T09:33:04;101257.88;;;12.73;94.83
43125;BME280;49182;50.788;7.318;2022-10-31T09:35:46;101272.78;;;12.95;94.67
43125;BME280;49182;50.788;7.318;2022-10-31T09:38:15;101274.19;;;13.09;93.59
43125;BME280;49182;50.788;7.318;2022-10-31T09:40:44;101272.06;;;13.23;92.22
43125;BME280;49182;50.788;7.318;2022-10-31T09:43:22;101268.63;;;13.32;90.99
43125;BME280;49182;50.788;7.318;2022-10-31T09:45:59;101271.28;;;13.42;90.69
43125;BME280;49182;50.788;7.318;2022-10-31T09:48:53;101262.34;;;13.53;90.94
43125;BME280;49182;50.788;7.318;2022-10-31T09:51:40;101264.91;;;13.64;91.12
43125;BME280;49182;50.788;7.318;2022-10-31T09:54:21;101245.63;;;13.62;90.89
43125;BME280;49182;50.788;7.318;2022-10-31T09:56:53;101248.00;;;13.84;90.30
43125;BME280;49182;50.788;7.318;2022-10-31T09:59:26;101251.91;;;13.99;89.50
43125;BME280;49182;50.788;7.318;2022-10-31T10:01:56;101214.59;;;13.91;89.64
43125;BME280;49182;50.788;7.318;2022-10-31T10:04:33;101244.91;;;14.17;89.09
43125;BME280;49182;50.788;7.318;2022-10-31T10:07:29;101248.50;;;14.26;88.92
43125;BME280;49182;50.788;7.318;2022-10-31T10:10:18;101243.47;;;14.33;88.75
43125;BME280;49182;50.788;7.318;2022-10-31T10:13:35;101228.53;;;14.41;89.03
43125;BME280;49182;50.788;7.318;2022-10-31T10:16:14;101223.47;;;14.48;89.35
43125;BME280;49182;50.788;7.318;2022-10-31T10:18:55;101227.63;;;14.60;88.91
43125;BME280;49182;50.788;7.318;2022-10-31T10:21:34;101218.63;;;14.71;88.55
43125;BME280;49182;50.788;7.318;2022-10-31T10:24:22;101217.91;;;14.78;88.38
43125;BME280;49182;50.788;7.318;2022-10-31T10:26:59;101203.84;;;14.68;87.28
43125;BME280;49182;50.788;7.318;2022-10-31T10:29:34;101210.97;;;14.95;86.73
43125;BME280;49182;50.788;7.318;2022-10-31T10:32:08;101212.06;;;15.02;85.82
43125;BME280;49182;50.788;7.318;2022-10-31T10:34:41;101153.78;;;14.81;85.16
43125;BME280;49182;50.788;7.318;2022-10-31T10:37:22;101182.06;;;15.10;85.45
43125;BME280;49182;50.788;7.318;2022-10-31T10:39:53;101196.91;;;15.30;85.61
43125;BME280;49182;50.788;7.318;2022-10-31T10:42:22;101189.00;;;15.38;85.32
43125;BME280;49182;50.788;7.318;2022-10-31T10:44:51;101173.97;;;15.47;85.40
43125;BME280;49182;50.788;7.318;2022-10-31T10:47:18;101180.97;;;15.65;85.28
43125;BME280;49182;50.788;7.318;2022-10-31T10:49:50;101165.28;;;15.80;85.26
43125;BME280;49182;50.788;7.318;2022-10-31T10:52:27;101169.91;;;15.96;84.72
43125;BME280;49182;50.788;7.318;2022-10-31T10:55:24;101161.34;;;16.10;84.08
43125;BME280;49182;50.788;7.318;2022-10-31T10:57:56;101156.81;;;16.28;82.81
43125;BME280;49182;50.788;7.318;2022-10-31T11:00:27;101158.41;;;16.47;81.34
43125;BME280;49182;50.788;7.318;2022-10-31T11:02:56;101148.59;;;16.55;81.90
43125;BME280;49182;50.788;7.318;2022-10-31T11:05:36;101149.91;;;16.77;80.49
43125;BME280;49182;50.788;7.318;2022-10-31T11:08:07;101149.09;;;16.93;78.05
43125;BME280;49182;50.788;7.318;2022-10-31T11:10:34;101145.63;;;17.01;76.07
43125;BME280;49182;50.788;7.318;2022-10-31T11:13:06;101145.97;;;17.06;76.29
43125;BME280;49182;50.788;7.318;2022-10-31T11:15:50;101145.16;;;17.13;77.09
43125;BME280;49182;50.788;7.318;2022-10-31T11:18:21;101141.00;;;17.19;78.21
43125;BME280;49182;50.788;7.318;2022-10-31T11:20:51;101129.34;;;17.28;77.07
43125;BME280;49182;50.788;7.318;2022-10-31T11:23:21;101125.84;;;17.35;76.04
43125;BME280;49182;50.788;7.318;2022-10-31T11:25:50;101131.50;;;17.40;76.02
43125;BME280;49182;50.788;7.318;2022-10-31T11:28:18;101130.84;;;17.47;75.43
43125;BME280;49182;50.788;7.318;2022-10-31T11:30:47;101117.69;;;17.45;75.86
43125;BME280;49182;50.788;7.318;2022-10-31T11:33:19;101101.66;;;17.45;76.33
43125;BME280;49182;50.788;7.318;2022-10-31T11:35:48;101124.72;;;17.62;77.09
43125;BME280;49182;50.788;7.318;2022-10-31T11:38:23;101128.56;;;17.68;76.98
43125;BME280;49182;50.788;7.318;2022-10-31T11:40:55;101126.38;;;17.79;76.57
43125;BME280;49182;50.788;7.318;2022-10-31T11:43:23;101114.00;;;17.87;76.26
43125;BME280;49182;50.788;7.318;2022-10-31T11:45:50;101111.16;;;17.96;75.76
43125;BME280;49182;50.788;7.318;2022-10-31T11:48:19;101095.78;;;17.98;75.05
43125;BME280;49182;50.788;7.318;2022-10-31T11:50:50;101100.75;;;18.17;74.06
43125;BME280;49182;50.788;7.318;2022-10-31T11:53:18;101092.34;;;18.29;71.34
43125;BME280;49182;50.788;7.318;2022-10-31T11:55:47;101090.34;;;18.39;72.25
43125;BME280;49182;50.788;7.318;2022-10-31T11:58:26;101085.59;;;18.49;72.12
43125;BME280;49182;50.788;7.318;2022-10-31T12:00:54;101078.03;;;18.61;71.89
43125;BME280;49182;50.788;7.318;2022-10-31T12:03:32;101082.84;;;18.73;70.15
43125;BME280;49182;50.788;7.318;2022-10-31T12:06:02;101078.78;;;18.77;69.80
43125;BME280;49182;50.788;7.318;2022-10-31T12:08:31;101067.88;;;18.87;68.88
43125;BME280;49182;50.788;7.318;2022-10-31T12:11:05;101032.47;;;18.77;67.62
43125;BME280;49182;50.788;7.318;2022-10-31T12:13:40;101050.41;;;18.99;67.75
43125;BME280;49182;50.788;7.318;2022-10-31T12:19:00;101048.59;;;19.14;66.05
43125;BME280;49182;50.788;7.318;2022-10-31T12:21:42;101047.88;;;19.20;65.41
43125;BME280;49182;50.788;7.318;2022-10-31T12:24:23;101047.69;;;19.22;65.85
43125;BME280;49182;50.788;7.318;2022-10-31T12:27:05;101024.31;;;19.16;64.97
43125;BME280;49182;50.788;7.318;2022-10-31T12:29:49;101016.97;;;19.18;64.89
43125;BME280;49182;50.788;7.318;2022-10-31T12:32:31;101045.53;;;19.40;64.50
43125;BME280;49182;50.788;7.318;2022-10-31T12:35:21;101030.47;;;19.39;63.61
43125;BME280;49182;50.788;7.318;2022-10-31T12:38:01;101012.47;;;19.33;63.15
43125;BME280;49182;50.788;7.318;2022-10-31T12:40:52;101015.38;;;19.46;63.47
43125;BME280;49182;50.788;7.318;2022-10-31T12:43:34;101015.03;;;19.49;64.40
43125;BME280;49182;50.788;7.318;2022-10-31T12:46:02;101021.84;;;19.52;64.46
43125;BME280;49182;50.788;7.318;2022-10-31T12:48:52;101011.81;;;19.54;64.30
43125;BME280;49182;50.788;7.318;2022-10-31T12:51:31;100999.41;;;19.53;64.54
43125;BME280;49182;50.788;7.318;2022-10-31T12:54:21;100999.16;;;19.62;62.83
43125;BME280;49182;50.788;7.318;2022-10-31T12:56:58;100976.16;;;19.53;62.28
43125;BME280;49182;50.788;7.318;2022-10-31T12:59:31;100989.19;;;19.56;62.97
43125;BME280;49182;50.788;7.318;2022-10-31T13:02:06;100982.69;;;19.51;64.05
43125;BME280;49182;50.788;7.318;2022-10-31T13:04:42;100977.97;;;19.53;62.28
43125;BME280;49182;50.788;7.318;2022-10-31T13:07:11;100966.81;;;19.49;61.77
43125;BME280;49182;50.788;7.318;2022-10-31T13:09:45;100955.97;;;19.43;63.19
43125;BME280;49182;50.788;7.318;2022-10-31T13:12:17;100945.91;;;19.30;64.16
43125;BME280;49182;50.788;7.318;2022-10-31T13:14:49;100938.50;;;19.17;63.69
43125;BME280;49182;50.788;7.318;2022-10-31T13:17:22;100943.94;;;19.24;65.07
43125;BME280;49182;50.788;7.318;2022-10-31T13:20:05;100929.56;;;19.25;65.28
43125;BME280;49182;50.788;7.318;2022-10-31T13:22:36;100888.91;;;19.07;64.21
43125;BME280;49182;50.788;7.318;2022-10-31T13:25:10;100908.75;;;19.27;63.83
43125;BME280;49182;50.788;7.318;2022-10-31T13:27:44;100913.84;;;19.36;63.09
43125;BME280;49182;50.788;7.318;2022-10-31T13:30:15;100908.78;;;19.42;62.61